Time;durP1;ratioP1;P1;durP2;ratioP2;P2;SDS_P1;SDS_P2;PMS_P1;PMS_P2;Temp;Humidity;BMP_temperature;BMP_pressure;BME280_temperature;BME280_humidity;BME280_pressure;Samples;Min_cycle;Max_cycle;Signal;HPM_P1;HPM_P2
2022/06/02 00:01:06;;;;;;;7.03;6.33;;;;;;;26.63;54.30;101457.12;1576133;89;21073;-49
2022/06/02 00:04:00;;;;;;;8.78;5.65;;;;;;;26.58;54.81;101445.97;1579059;88;21197;-49
2022/06/02 00:06:50;;;;;;;6.67;5.15;;;;;;;26.62;56.13;101460.78;1573377;88;21563;-50
2022/06/02 00:09:35;;;;;;;6.22;5.45;;;;;;;26.62;56.13;101460.78;1592018;89;21191;-53
2022/06/02 00:12:35;;;;;;;7.35;5.22;;;;;;;26.64;56.24;101457.50;1571170;88;21274;-51
2022/06/02 00:15:17;;;;;;;6.80;5.28;;;;;;;26.68;56.87;101454.95;1544349;92;21164;-52
2022/06/02 00:18:01;;;;;;;6.90;5.87;;;;;;;26.68;56.87;101454.95;1588567;89;21123;-51
2022/06/02 00:20:48;;;;;;;8.55;5.67;;;;;;;26.70;56.84;101455.69;1550718;90;21105;-49
2022/06/02 00:23:44;;;;;;;8.78;5.47;;;;;;;26.69;56.87;101444.63;1554282;91;21078;-49
2022/06/02 00:26:59;;;;;;;7.28;5.95;;;;;;;26.72;56.98;101451.11;1568342;90;21088;-49
2022/06/02 00:29:49;;;;;;;9.68;5.40;;;;;;;26.74;56.97;101453.17;1561889;90;21599;-49
2022/06/02 00:32:53;;;;;;;10.13;6.00;;;;;;;26.76;56.84;101452.57;1541785;92;21660;-48
2022/06/02 00:35:34;;;;;;;5.50;4.95;;;;;;;26.76;56.86;101452.57;1534596;92;21148;-55
2022/06/02 00:38:18;;;;;;;9.40;5.30;;;;;;;26.76;56.77;101447.70;1536341;92;21576;-50
2022/06/02 00:40:44;;;;;;;7.92;5.12;;;;;;;26.79;56.87;101452.31;1529065;93;21124;-50
2022/06/02 00:43:51;;;;;;;5.95;5.33;;;;;;;26.80;56.81;101454.03;1548975;91;21082;-49
2022/06/02 00:46:35;;;;;;;7.08;5.47;;;;;;;26.79;56.66;101454.98;1528955;92;21080;-50
2022/06/02 00:49:19;;;;;;;10.35;5.55;;;;;;;26.79;56.61;101452.31;1547864;91;21116;-52
2022/06/02 00:52:15;;;;;;;8.15;5.20;;;;;;;26.81;56.58;101450.88;1552898;87;21691;-50
2022/06/02 00:57:56;;;;;;;9.43;5.60;;;;;;;26.82;56.76;101460.09;1677040;85;21054;-54
2022/06/02 01:00:38;;;;;;;;;;;;;;;26.81;56.63;101457.56;1659540;85;21069;-50
2022/06/02 01:03:19;;;;;;;8.55;5.50;;;;;;;26.79;56.61;101464.33;1665685;84;20422;-49
2022/06/02 01:06:04;;;;;;;9.70;5.92;;;;;;;26.78;56.70;101465.79;1632729;86;21237;-54
2022/06/02 01:09:22;;;;;;;6.15;5.47;;;;;;;26.79;56.94;101465.66;1621471;85;21042;-54
2022/06/02 01:12:16;;;;;;;8.00;5.47;;;;;;;26.81;57.16;101468.23;1630102;86;21058;-50
2022/06/02 01:14:53;;;;;;;8.58;5.17;;;;;;;26.83;57.24;101464.45;1633410;86;21096;-51
2022/06/02 01:17:44;;;;;;;6.30;5.03;;;;;;;26.85;57.11;101463.87;1588890;87;21642;-50
2022/06/02 01:20:31;;;;;;;5.95;5.00;;;;;;;26.86;56.85;101460.70;1597065;87;21581;-54
2022/06/02 01:23:38;;;;;;;8.43;5.85;;;;;;;26.84;56.76;101458.16;1595368;87;21611;-50
2022/06/02 01:26:27;;;;;;;7.30;4.95;;;;;;;26.84;56.73;101452.81;1643066;86;21194;-49
2022/06/02 01:29:36;;;;;;;7.08;4.97;;;;;;;26.84;56.67;101455.48;1637331;86;21145;-49
2022/06/02 01:32:09;;;;;;;6.62;4.80;;;;;;;26.81;56.74;101455.71;1616940;87;21558;-51
2022/06/02 01:35:04;;;;;;;6.47;4.97;;;;;;;26.79;56.61;101449.64;1607481;85;21172;-50
2022/06/02 01:37:56;;;;;;;6.40;4.97;;;;;;;26.76;56.70;101448.56;1639088;86;21082;-50
2022/06/02 01:40:57;;;;;;;9.43;4.92;;;;;;;26.75;56.66;101446.84;1642210;85;21242;-50
2022/06/02 01:43:38;;;;;;;8.00;5.35;;;;;;;26.73;56.56;101449.30;1645306;86;21541;-52
2022/06/02 01:46:30;;;;;;;8.40;5.25;;;;;;;26.72;56.74;101451.11;1649981;85;21028;-49
2022/06/02 01:49:27;;;;;;;6.67;4.85;;;;;;;26.72;56.91;101455.59;1630881;86;21066;-49
2022/06/02 01:52:20;;;;;;;7.60;5.20;;;;;;;26.70;57.03;101447.67;1643628;86;21014;-49
2022/06/02 01:55:11;;;;;;;8.08;4.85;;;;;;;26.71;57.24;101461.38;1634703;86;21067;-49
2022/06/02 01:57:56;;;;;;;6.47;5.17;;;;;;;26.71;57.57;101458.70;1664015;84;21550;-49
2022/06/02 02:00:26;;;;;;;6.30;4.55;;;;;;;26.71;57.59;101462.71;1665925;84;21151;-50
2022/06/02 02:03:20;;;;;;;10.20;5.03;;;;;;;26.70;57.52;101459.69;1635712;85;21061;-50
2022/06/02 02:06:24;;;;;;;6.15;5.45;;;;;;;26.70;57.77;101457.02;1669841;84;21030;-52
2022/06/02 02:09:06;;;;;;;5.45;4.65;;;;;;;26.70;57.67;101461.03;1677417;84;21014;-52
2022/06/02 02:11:51;;;;;;;9.18;4.95;;;;;;;26.70;57.61;101459.69;1643530;86;21087;-52
2022/06/02 02:14:43;;;;;;;7.47;4.95;;;;;;;26.68;57.63;101462.97;1669271;85;21010;-51
2022/06/02 02:17:36;;;;;;;5.60;4.97;;;;;;;26.68;57.95;101460.30;1653809;85;21131;-51
2022/06/02 02:20:59;;;;;;;6.70;4.60;;;;;;;26.67;58.26;101462.59;1663837;84;21026;-50
2022/06/02 02:23:36;;;;;;;6.22;4.37;;;;;;;26.69;58.54;101465.98;1605289;88;21156;-50
2022/06/02 02:26:11;;;;;;;6.37;4.08;;;;;;;26.70;57.94;101461.03;1553993;91;21161;-50
2022/06/02 02:29:04;;;;;;;9.63;4.40;;;;;;;26.69;57.34;101464.65;1577977;89;21632;-51
2022/06/02 02:32:07;;;;;;;7.35;4.12;;;;;;;26.67;57.08;101465.25;1607229;87;21098;-49
2022/06/02 02:34:56;;;;;;;6.22;4.00;;;;;;;26.73;57.07;101471.48;1604051;88;21515;-53
2022/06/02 02:37:40;;;;;;;8.33;5.20;;;;;;;26.77;57.05;101470.27;1620822;88;21097;-49
2022/06/02 02:40:21;;;;;;;5.72;4.45;;;;;;;26.78;57.17;101471.99;1622893;88;21046;-50
2022/06/02 02:43:18;;;;;;;6.67;4.53;;;;;;;26.80;57.34;101471.39;1625780;88;21097;-51
2022/06/02 02:46:10;;;;;;;8.20;5.15;;;;;;;26.83;57.35;101468.97;1629994;86;21688;-51
2022/06/02 02:48:59;;;;;;;10.72;4.40;;;;;;;26.84;57.31;101471.98;1630279;86;21550;-53
2022/06/02 02:52:06;;;;;;;7.80;4.30;;;;;;;26.85;57.18;101471.89;1581486;90;21179;-49
2022/06/02 02:55:09;;;;;;;6.67;4.53;;;;;;;26.87;56.55;101470.42;1571045;90;21606;-50
2022/06/02 02:58:03;;;;;;;8.95;4.92;;;;;;;26.87;55.93;101467.28;1507721;94;21558;-50
2022/06/02 03:00:51;;;;;;;7.70;4.10;;;;;;;26.89;55.21;101477.36;1507990;94;21090;-50
2022/06/02 03:03:21;;;;;;;9.30;4.10;;;;;;;26.89;54.88;101474.69;1486804;95;21613;-49
2022/06/02 03:06:07;;;;;;;9.43;4.22;;;;;;;26.89;54.20;101477.36;1469730;97;21126;-50
2022/06/02 03:08:45;;;;;;;8.55;4.42;;;;;;;26.90;53.83;101478.18;1486464;95;21584;-51
2022/06/02 03:11:46;;;;;;;6.03;4.30;;;;;;;26.90;53.52;101473.70;1500331;95;21056;-49
2022/06/02 03:14:50;;;;;;;6.92;4.28;;;;;;;26.90;53.47;101488.39;1524139;93;21131;-52
2022/06/02 03:17:46;;;;;;;10.05;4.58;;;;;;;26.94;53.55;101485.84;1519976;93;21122;-49
2022/06/02 03:20:36;;;;;;;8.65;4.65;;;;;;;26.99;53.54;101500.17;1512236;93;21164;-52
2022/06/02 03:23:43;;;;;;;11.03;4.33;;;;;;;27.02;53.65;101490.56;1512648;94;21085;-52
2022/06/02 03:26:27;;;;;;;10.18;4.28;;;;;;;27.03;53.96;101497.63;1512006;94;21321;-50
2022/06/02 03:29:03;;;;;;;10.58;4.33;;;;;;;27.03;54.16;101498.48;1484708;94;21172;-51
2022/06/02 03:32:05;;;;;;;6.75;3.95;;;;;;;27.06;53.90;101497.41;1503264;92;21137;-51
2022/06/02 03:34:46;;;;;;;9.50;4.70;;;;;;;27.09;53.74;101503.34;1536217;93;21153;-48
2022/06/02 03:37:45;;;;;;;6.75;3.87;;;;;;;27.25;53.31;101497.14;1518728;93;21218;-52
2022/06/02 03:40:34;;;;;;;10.82;4.50;;;;;;;27.46;52.83;101493.75;1520149;93;21102;-49
2022/06/02 03:43:21;;;;;;;6.45;3.98;;;;;;;27.79;52.13;101495.03;1521880;92;21071;-49
2022/06/02 03:46:05;;;;;;;9.48;4.17;;;;;;;28.26;51.01;101501.34;1486121;95;21111;-52
2022/06/02 03:48:50;;;;;;;10.60;3.98;;;;;;;28.76;49.73;101501.95;1461922;97;21171;-52
2022/06/02 03:51:26;;;;;;;7.17;4.42;;;;;;;29.24;48.31;101503.58;1443811;97;21153;-51
2022/06/02 03:54:43;;;;;;;9.70;3.80;;;;;;;29.69;47.26;101497.28;1448067;97;21127;-50
2022/06/02 03:57:30;;;;;;;6.03;3.90;;;;;;;30.17;46.02;101498.72;1465537;95;21092;-51
2022/06/02 04:00:50;;;;;;;7.55;4.08;;;;;;;30.75;44.54;101495.50;1494852;95;21585;-50
2022/06/02 04:03:24;;;;;;;10.23;4.42;;;;;;;31.00;43.53;101505.62;1489002;96;21160;-52
2022/06/02 04:06:03;;;;;;;10.93;4.87;;;;;;;30.96;43.39;101505.56;1423746;97;21298;-49
2022/06/02 04:08:38;;;;;;;7.65;4.20;;;;;;;30.76;43.51;101514.64;1455052;97;21120;-50
2022/06/02 04:11:21;;;;;;;6.20;4.40;;;;;;;30.49;43.89;101512.22;1464372;97;21156;-52
2022/06/02 04:14:04;;;;;;;8.43;4.40;;;;;;;30.23;44.40;101511.05;1460011;96;21208;-49
2022/06/02 04:16:57;;;;;;;6.80;4.10;;;;;;;29.93;44.68;101513.02;1445812;97;21719;-48
2022/06/02 04:22:53;;;;;;;10.70;4.28;;;;;;;29.35;45.83;101517.34;1451122;97;21100;-51
2022/06/02 04:25:54;;;;;;;6.83;4.53;;;;;;;29.13;46.52;101514.83;1488025;94;21095;-51
2022/06/02 04:28:52;;;;;;;7.45;4.30;;;;;;;28.94;46.97;101517.77;1493857;95;21666;-52
2022/06/02 04:31:45;;;;;;;10.05;4.53;;;;;;;28.77;47.37;101514.86;1476356;96;21157;-50
2022/06/02 04:34:41;;;;;;;8.63;4.72;;;;;;;28.63;47.76;101521.86;1500436;93;21104;-51
2022/06/02 04:37:49;;;;;;;6.25;4.00;;;;;;;28.52;48.19;101520.05;1492617;95;21134;-50
2022/06/02 04:40:26;;;;;;;6.08;4.20;;;;;;;28.39;48.58;101516.73;1502511;94;21092;-51
2022/06/02 04:43:08;;;;;;;5.83;4.30;;;;;;;28.31;48.97;101524.56;1526116;90;21087;-50
2022/06/02 04:46:08;;;;;;;7.08;5.17;;;;;;;28.30;49.16;101521.52;1595372;88;21118;-51
2022/06/02 04:49:15;;;;;;;8.95;4.83;;;;;;;28.28;49.21;101524.80;1585807;88;21081;-51
2022/06/02 04:52:21;;;;;;;7.67;4.47;;;;;;;28.30;49.28;101535.37;1594459;88;21070;-50
2022/06/02 04:55:18;;;;;;;9.20;4.67;;;;;;;28.31;49.43;101532.59;1586305;88;21113;-51
2022/06/02 04:58:14;;;;;;;11.48;4.50;;;;;;;28.33;49.41;101525.28;1606654;87;21063;-52
2022/06/02 05:01:03;;;;;;;7.20;4.62;;;;;;;28.36;49.14;101525.53;1621406;88;21100;-52
2022/06/02 05:03:48;;;;;;;11.30;4.92;;;;;;;28.38;49.07;101529.75;1601630;88;21074;-51
2022/06/02 05:06:46;;;;;;;11.18;5.10;;;;;;;28.46;49.12;101525.94;1570420;89;21045;-56
2022/06/02 05:09:22;;;;;;;5.87;3.90;;;;;;;28.60;48.95;101529.69;1556534;91;21192;-51
2022/06/02 05:12:05;;;;;;;7.12;4.72;;;;;;;28.83;48.69;101537.11;1530305;93;21141;-51
2022/06/02 05:14:47;;;;;;;7.72;4.60;;;;;;;29.05;48.30;101530.73;1522216;93;21863;-53
2022/06/02 05:17:45;;;;;;;7.20;4.40;;;;;;;29.33;47.89;101532.72;1560774;90;21040;-51
2022/06/02 05:20:43;;;;;;;9.38;5.60;;;;;;;29.60;46.92;101536.98;1533266;90;21290;-48
2022/06/02 05:23:36;;;;;;;8.43;5.80;;;;;;;29.93;45.83;101540.70;1536845;92;21098;-50
2022/06/02 05:26:41;;;;;;;9.80;5.12;;;;;;;30.25;44.60;101531.89;1580559;87;21086;-50
2022/06/02 05:29:25;;;;;;;11.85;5.10;;;;;;;30.57;43.73;101536.16;1573698;90;21169;-49
2022/06/02 05:32:14;;;;;;;8.88;4.87;;;;;;;30.86;42.85;101532.48;1596590;87;21113;-49
2022/06/02 05:35:21;;;;;;;11.12;5.05;;;;;;;31.02;42.34;101521.95;1582713;88;21216;-50
2022/06/02 05:38:19;;;;;;;10.00;4.97;;;;;;;31.12;41.84;101525.95;1515848;91;21085;-49
2022/06/02 05:40:53;;;;;;;12.18;5.30;;;;;;;31.15;41.99;101527.02;1520130;93;21125;-52
2022/06/02 05:43:46;;;;;;;10.48;5.50;;;;;;;31.18;41.94;101520.02;1532442;91;21180;-52
2022/06/02 05:46:39;;;;;;;9.30;5.12;;;;;;;31.20;41.82;101518.84;1561447;90;21785;-52
2022/06/02 05:49:26;;;;;;;10.90;4.85;;;;;;;31.21;41.82;101516.52;1568072;90;21187;-48
2022/06/02 05:52:28;;;;;;;10.88;5.60;;;;;;;31.24;41.76;101514.86;1570339;90;21627;-51
2022/06/02 05:55:18;;;;;;;11.12;5.28;;;;;;;31.27;41.68;101525.34;1561039;90;21644;-50
2022/06/02 05:58:08;;;;;;;7.17;5.10;;;;;;;31.33;41.60;101525.23;1548891;90;21206;-52
2022/06/02 06:01:00;;;;;;;8.05;5.37;;;;;;;31.41;41.58;101521.33;1530165;92;21136;-50
2022/06/02 06:04:12;;;;;;;8.20;4.70;;;;;;;31.53;41.41;101521.48;1525521;91;21076;-50
2022/06/02 06:06:50;;;;;;;9.95;5.00;;;;;;;31.66;41.43;101527.36;1592482;88;21541;-51
2022/06/02 06:09:41;;;;;;;9.63;4.90;;;;;;;31.85;41.18;101524.56;1589569;88;21158;-52
2022/06/02 06:12:37;;;;;;;7.75;5.08;;;;;;;32.01;40.70;101524.76;1578508;90;21103;-49
2022/06/02 06:15:23;;;;;;;8.60;5.05;;;;;;;32.21;40.28;101528.66;1578732;90;21562;-52
2022/06/02 06:18:00;;;;;;;8.40;5.05;;;;;;;32.38;39.90;101530.48;1569025;90;21165;-53
2022/06/02 06:20:54;;;;;;;7.78;4.53;;;;;;;32.56;39.62;101524.63;1586516;90;21553;-50
2022/06/02 06:24:01;;;;;;;11.53;4.97;;;;;;;32.78;39.05;101520.06;1585814;90;21097;-49
2022/06/02 06:26:42;;;;;;;8.40;4.80;;;;;;;33.05;38.63;101522.64;1584408;90;21092;-52
2022/06/02 06:29:27;;;;;;;9.08;4.35;;;;;;;33.41;37.92;101520.10;1615077;87;21085;-52
2022/06/02 06:32:05;;;;;;;8.33;4.70;;;;;;;33.70;37.30;101526.98;1627300;87;21058;-52
2022/06/02 06:34:50;;;;;;;9.80;5.37;;;;;;;33.93;37.12;101527.56;1622234;86;21086;-53
2022/06/02 06:37:39;;;;;;;8.05;4.72;;;;;;;34.09;36.61;101533.52;1631074;87;21030;-50
2022/06/02 06:40:27;;;;;;;8.85;4.67;;;;;;;34.13;36.93;101536.22;1573620;90;21174;-49
2022/06/02 06:43:45;;;;;;;8.60;4.83;;;;;;;34.06;38.04;101535.22;1584257;90;21070;-53
2022/06/02 06:46:36;;;;;;;7.42;4.35;;;;;;;33.91;38.71;101534.13;1594208;90;21058;-54
2022/06/02 06:49:29;;;;;;;6.83;4.95;;;;;;;33.74;39.12;101537.81;1604586;87;21132;-51
2022/06/02 06:52:14;;;;;;;9.88;4.62;;;;;;;33.60;39.10;101527.98;1623385;87;21040;-53
2022/06/02 06:54:56;;;;;;;7.85;5.65;;;;;;;33.54;38.74;101543.47;1621232;86;21160;-50
2022/06/02 06:57:38;;;;;;;9.35;5.08;;;;;;;33.55;38.41;101545.15;1593575;88;21078;-51
2022/06/02 07:00:10;;;;;;;6.67;4.50;;;;;;;33.57;37.67;101541.78;1595568;89;21043;-53
2022/06/02 07:03:19;;;;;;;10.08;4.55;;;;;;;33.57;37.70;101539.08;1580069;88;21149;-52
2022/06/02 07:05:52;;;;;;;8.13;4.80;;;;;;;33.65;37.72;101540.99;1594435;89;21118;-50
2022/06/02 07:08:31;;;;;;;9.60;5.12;;;;;;;33.85;37.53;101542.89;1588647;88;21073;-53
2022/06/02 07:14:48;;;;;;;9.88;5.42;;;;;;;34.11;36.87;101543.64;1508994;94;21062;-50
2022/06/02 07:17:57;;;;;;;6.97;4.62;;;;;;;34.21;36.62;101540.31;1474605;95;21166;-52
2022/06/02 07:21:08;;;;;;;10.20;4.97;;;;;;;34.35;36.49;101543.70;1478075;95;21132;-53
2022/06/02 07:24:10;;;;;;;8.83;4.37;;;;;;;34.38;36.37;101551.45;1411119;99;21140;-52
2022/06/02 07:26:52;;;;;;;6.03;4.47;;;;;;;34.34;36.71;101550.09;1437378;98;21122;-52
2022/06/02 07:30:04;;;;;;;9.65;5.25;;;;;;;34.27;37.24;101551.80;1436085;98;21184;-52
2022/06/02 07:33:16;;;;;;;6.97;4.37;;;;;;;34.27;37.40;101556.67;1440164;98;21138;-49
2022/06/02 07:36:25;;;;;;;7.85;5.22;;;;;;;34.23;37.50;101551.27;1438431;96;21208;-52
2022/06/02 07:39:20;;;;;;;6.80;4.92;;;;;;;34.16;37.61;101545.36;1446469;98;21107;-52
2022/06/02 07:42:03;;;;;;;11.35;5.10;;;;;;;34.03;37.89;101557.14;1438819;98;21118;-50
2022/06/02 07:45:12;;;;;;;9.73;5.33;;;;;;;33.88;38.00;101545.28;1436995;98;21193;-51
2022/06/02 07:48:07;;;;;;;9.35;5.00;;;;;;;33.76;38.45;101554.70;1408543;99;21186;-50
2022/06/02 07:50:49;;;;;;;8.23;5.10;;;;;;;33.61;38.58;101560.69;1493881;93;21093;-49
2022/06/02 07:53:30;;;;;;;10.78;5.45;;;;;;;33.51;38.98;101569.42;1546134;91;21576;-52
2022/06/02 07:56:07;;;;;;;7.28;5.83;;;;;;;33.43;38.83;101567.16;1505913;93;21166;-52
2022/06/02 07:59:11;;;;;;;10.98;6.62;;;;;;;33.34;38.74;101568.98;1499187;95;21071;-51
2022/06/02 08:02:10;;;;;;;9.43;6.53;;;;;;;33.26;38.94;101564.87;1595434;88;21116;-52
2022/06/02 08:04:46;;;;;;;8.73;6.65;;;;;;;33.18;38.94;101566.17;1565170;91;21084;-50
2022/06/02 08:07:19;;;;;;;10.95;6.97;;;;;;;33.12;39.26;101562.77;1558738;90;21583;-51
2022/06/02 08:10:10;;;;;;;8.45;5.87;;;;;;;33.11;39.04;101575.08;1565060;90;21058;-50
2022/06/02 08:12:51;;;;;;;12.88;5.58;;;;;;;33.06;38.96;101583.64;1568760;90;21577;-52
2022/06/02 08:15:24;;;;;;;;;;;;;;;32.97;39.30;101583.22;1525399;93;21126;-52
2022/06/02 08:18:02;;;;;;;12.75;5.67;;;;;;;32.89;39.80;101577.77;1518386;93;20478;-52
2022/06/02 08:20:34;;;;;;;11.53;6.67;;;;;;;32.81;39.65;101570.95;1524106;93;22916;-53
2022/06/02 08:23:48;;;;;;;10.58;6.65;;;;;;;32.75;39.72;101581.86;1514680;92;21155;-51
2022/06/02 08:26:18;;;;;;;7.95;5.60;;;;;;;32.72;39.56;101579.99;1525441;92;21167;-52
2022/06/02 08:28:59;;;;;;;9.90;5.67;;;;;;;32.68;39.56;101589.39;1515400;93;21124;-52
2022/06/02 08:32:01;;;;;;;11.30;5.67;;;;;;;32.65;39.85;101593.73;1533000;92;21333;-52
2022/06/02 08:35:07;;;;;;;7.50;5.30;;;;;;;32.61;40.04;101593.70;1518316;92;21087;-52
2022/06/02 08:38:02;;;;;;;5.78;4.75;;;;;;;32.56;40.31;101598.73;1519683;92;21104;-51
2022/06/02 08:40:49;;;;;;;9.78;5.60;;;;;;;32.52;40.42;101598.16;1510106;92;21139;-53
2022/06/02 08:43:44;;;;;;;7.67;5.67;;;;;;;32.49;40.52;101592.25;1498815;93;21090;-49
2022/06/02 08:46:36;;;;;;;7.80;5.00;;;;;;;32.48;40.66;101595.96;1528684;92;21102;-53
2022/06/02 08:49:28;;;;;;;9.08;5.72;;;;;;;32.49;40.24;101596.28;1524254;92;21115;-50
2022/06/02 08:52:15;;;;;;;10.43;6.05;;;;;;;32.51;40.02;101590.24;1521274;92;21096;-48
2022/06/02 08:55:15;;;;;;;7.33;5.87;;;;;;;32.52;40.08;101598.69;1491159;95;21129;-48
2022/06/02 08:58:22;;;;;;;9.38;5.28;;;;;;;32.52;40.20;101597.34;1498154;94;21154;-52
2022/06/02 09:01:33;;;;;;;10.48;6.10;;;;;;;32.54;40.07;101606.12;1816170;79;22952;-50
2022/06/02 09:04:42;;;;;;;9.73;5.45;;;;;;;32.46;40.11;101606.05;1769580;80;21022;-53
2022/06/02 09:07:45;;;;;;;10.43;5.60;;;;;;;32.36;40.26;101606.06;1783938;80;21026;-49
2022/06/02 09:10:51;;;;;;;11.35;5.70;;;;;;;32.25;40.43;101608.15;1747875;81;20998;-50
2022/06/02 09:14:09;;;;;;;9.73;6.28;;;;;;;32.11;40.81;101608.67;1750319;81;21042;-50
2022/06/02 09:16:57;;;;;;;11.33;6.10;;;;;;;32.00;40.78;101601.65;1753515;81;21066;-49
2022/06/02 09:19:50;;;;;;;7.58;5.30;;;;;;;31.93;40.46;101603.23;1754683;81;21030;-54
2022/06/02 09:22:49;;;;;;;7.60;4.97;;;;;;;31.90;41.10;101609.73;1710560;82;21066;-53
2022/06/02 09:25:44;;;;;;;7.75;5.53;;;;;;;31.87;41.18;101603.31;1714995;82;21510;-49
2022/06/02 09:28:46;;;;;;;8.73;5.85;;;;;;;31.85;41.39;101605.80;1688935;83;21122;-48
2022/06/02 09:31:36;;;;;;;8.18;5.95;;;;;;;31.85;41.91;101598.58;1665481;85;21088;-52
2022/06/02 09:34:35;;;;;;;6.53;5.33;;;;;;;31.88;42.25;101605.00;1677461;83;21050;-49
2022/06/02 09:37:35;;;;;;;9.90;5.22;;;;;;;31.90;42.29;101605.69;1691208;83;21008;-49
2022/06/02 09:40:25;;;;;;;10.10;5.58;;;;;;;31.89;42.45;101606.70;1680457;85;21548;-50
2022/06/02 09:43:21;;;;;;;8.35;5.37;;;;;;;31.89;42.40;101608.05;1691740;85;21051;-52
2022/06/02 09:46:28;;;;;;;13.08;6.00;;;;;;;31.88;42.74;101610.38;1638450;86;21574;-53
2022/06/02 09:49:41;;;;;;;11.83;5.97;;;;;;;31.91;42.67;101614.13;1557304;90;21086;-52
2022/06/02 09:52:25;;;;;;;9.33;5.58;;;;;;;31.92;42.55;101612.30;1579573;89;21569;-52
2022/06/02 09:55:45;;;;;;;9.65;6.03;;;;;;;31.91;42.26;101608.75;1613299;88;21596;-55
2022/06/02 09:58:49;;;;;;;8.57;5.00;;;;;;;31.86;42.27;101605.64;1608592;88;21580;-52
2022/06/02 10:01:39;;;;;;;9.50;5.53;;;;;;;31.78;42.67;101606.89;1632627;87;21046;-51
2022/06/02 10:04:31;;;;;;;8.78;6.03;;;;;;;31.70;42.97;101612.17;1625753;87;21066;-52
2022/06/02 10:07:40;;;;;;;6.92;5.40;;;;;;;31.68;43.38;101620.89;1632522;87;21070;-49
2022/06/02 10:10:33;;;;;;;7.65;6.72;;;;;;;31.69;43.43;101613.19;1637022;87;21097;-50
2022/06/02 10:13:47;;;;;;;17.85;11.60;;;;;;;31.74;43.43;101610.03;1627655;87;21056;-51
2022/06/02 10:16:49;;;;;;;11.57;6.80;;;;;;;31.80;43.29;101614.84;1610565;88;21145;-51
2022/06/02 10:19:21;;;;;;;32.85;21.82;;;;;;;31.83;43.15;101608.66;1558264;91;21475;-49
2022/06/02 10:22:10;;;;;;;10.13;6.05;;;;;;;31.84;43.06;101604.95;1556044;91;21079;-52
2022/06/02 10:24:57;;;;;;;13.88;6.62;;;;;;;31.84;43.23;101605.47;1542137;92;21043;-51
2022/06/02 10:28:20;;;;;;;9.85;7.12;;;;;;;31.85;43.21;101606.66;1580011;89;21050;-52
2022/06/02 10:31:10;;;;;;;13.22;7.30;;;;;;;31.84;43.37;101607.64;1549145;91;21090;-53
2022/06/02 10:34:25;;;;;;;10.65;7.08;;;;;;;31.85;43.51;101613.88;1582813;89;21648;-52
2022/06/02 10:37:09;;;;;;;9.73;6.08;;;;;;;31.85;43.59;101617.42;1568489;89;21070;-49
2022/06/02 10:40:04;;;;;;;13.62;7.05;;;;;;;31.85;43.72;101624.16;1546399;92;21072;-50
2022/06/02 10:42:49;;;;;;;11.73;7.25;;;;;;;31.89;43.64;101626.03;1580123;89;21093;-52
2022/06/02 10:45:36;;;;;;;9.88;7.00;;;;;;;31.91;43.63;101630.28;1577482;90;21599;-51
2022/06/02 10:48:52;;;;;;;11.90;7.10;;;;;;;31.93;43.82;101622.08;1593121;89;21141;-50
2022/06/02 10:51:39;;;;;;;10.80;6.92;;;;;;;31.94;43.69;101621.92;1596796;89;21537;-52
2022/06/02 10:54:20;;;;;;;10.23;7.62;;;;;;;31.93;43.65;101612.17;1595362;89;21058;-49
2022/06/02 10:57:21;;;;;;;11.35;7.45;;;;;;;31.94;43.67;101611.16;1620748;86;21554;-51
2022/06/02 11:00:20;;;;;;;13.58;7.87;;;;;;;31.93;43.74;101600.05;1646345;86;21604;-50
2022/06/02 11:03:40;;;;;;;12.05;8.40;;;;;;;31.91;43.92;101596.63;1672013;82;21694;-52
2022/06/02 11:06:29;;;;;;;10.63;8.60;;;;;;;31.90;43.90;101593.58;1742472;81;21061;-51
2022/06/02 11:09:31;;;;;;;18.77;14.18;;;;;;;31.90;44.01;101596.27;1737747;82;21081;-52
2022/06/02 11:12:20;;;;;;;22.32;14.93;;;;;;;31.89;44.08;101593.73;1749347;81;21604;-50
2022/06/02 11:15:08;;;;;;;11.25;9.08;;;;;;;31.86;44.05;101596.22;1730975;81;21084;-53
2022/06/02 11:17:42;;;;;;;13.93;9.55;;;;;;;31.82;44.01;101593.48;1738060;81;21045;-50
2022/06/02 11:21:03;;;;;;;14.63;9.63;;;;;;;31.76;44.25;101592.73;1719978;81;21021;-51
2022/06/02 11:23:37;;;;;;;16.48;10.75;;;;;;;31.71;44.28;101592.36;1721912;82;21082;-51
2022/06/02 11:26:52;;;;;;;17.52;11.50;;;;;;;31.69;44.50;101598.39;1688912;83;21514;-51
2022/06/02 11:29:49;;;;;;;13.40;10.23;;;;;;;31.69;44.55;101598.39;1739477;81;21037;-55
2022/06/02 11:32:44;;;;;;;12.07;9.40;;;;;;;31.72;44.60;101592.69;1743817;81;21006;-50
2022/06/02 11:35:52;;;;;;;10.98;9.15;;;;;;;31.76;44.73;101596.77;1736451;81;20994;-50
2022/06/02 11:38:24;;;;;;;14.58;9.58;;;;;;;31.79;44.75;101593.80;1749135;81;21010;-51
2022/06/02 11:41:20;;;;;;;14.18;9.80;;;;;;;31.83;44.77;101596.54;1702417;83;21132;-55
2022/06/02 11:44:08;;;;;;;14.23;9.18;;;;;;;31.86;44.63;101596.75;1651352;86;21590;-49
2022/06/02 11:46:53;;;;;;;12.95;9.53;;;;;;;31.85;44.68;101590.50;1656866;86;21053;-56
2022/06/02 11:49:35;;;;;;;11.95;8.95;;;;;;;31.84;44.60;101591.48;1670203;84;21049;-50
2022/06/02 11:52:23;;;;;;;11.80;9.13;;;;;;;31.82;44.74;101581.38;1664087;84;21102;-51
2022/06/02 11:55:05;;;;;;;16.60;9.83;;;;;;;31.79;44.81;101577.66;1657544;84;21517;-52
2022/06/02 11:58:05;;;;;;;14.65;9.40;;;;;;;31.77;44.70;101568.88;1670618;84;21527;-50
2022/06/02 12:01:12;;;;;;;13.10;8.88;;;;;;;31.74;44.56;101571.00;1670110;84;21078;-50
2022/06/02 12:04:06;;;;;;;13.55;9.13;;;;;;;31.66;44.56;101575.80;1664128;85;21034;-48
2022/06/02 12:07:21;;;;;;;11.70;8.00;;;;;;;31.58;44.67;101570.32;1656177;85;21642;-50
2022/06/02 12:10:11;;;;;;;13.43;6.90;;;;;;;31.49;44.90;101569.85;1602560;89;21065;-51
2022/06/02 12:13:04;;;;;;;12.03;7.72;;;;;;;31.38;44.92;101561.95;1599332;89;21605;-50
2022/06/02 12:15:43;;;;;;;13.32;7.70;;;;;;;31.27;45.03;101567.51;1545110;92;21097;-50
2022/06/02 12:18:47;;;;;;;13.75;8.10;;;;;;;31.19;45.28;101564.70;1559361;92;21105;-51
2022/06/02 12:22:05;;;;;;;11.63;7.17;;;;;;;31.11;45.66;101564.59;1539796;90;21110;-49
2022/06/02 12:24:46;;;;;;;10.58;7.78;;;;;;;31.02;46.04;101564.11;1569018;90;21082;-50
2022/06/02 12:27:38;;;;;;;12.28;8.65;;;;;;;30.94;46.27;101559.96;1542903;91;21153;-52
2022/06/02 12:30:37;;;;;;;14.03;7.55;;;;;;;30.87;46.42;101558.86;1534987;93;21148;-50
2022/06/02 12:33:53;;;;;;;9.95;7.17;;;;;;;30.80;46.60;101556.36;1482803;96;21172;-51
2022/06/02 12:36:58;;;;;;;11.70;7.87;;;;;;;30.72;46.69;101547.68;1486516;96;21591;-50
2022/06/02 12:39:45;;;;;;;11.18;6.92;;;;;;;30.66;46.93;101538.00;1468081;96;21120;-52
2022/06/02 12:43:03;;;;;;;8.95;6.53;;;;;;;30.61;47.11;101529.50;1475619;97;21652;-50
2022/06/02 12:45:52;;;;;;;13.00;7.25;;;;;;;30.60;47.03;101529.17;1481661;93;21124;-53
2022/06/02 12:49:01;;;;;;;10.43;6.62;;;;;;;30.59;46.80;101522.09;1520101;94;21129;-50
2022/06/02 12:51:53;;;;;;;11.00;7.17;;;;;;;30.62;47.09;101519.98;1518069;94;21605;-50
2022/06/02 12:54:43;;;;;;;12.65;7.67;;;;;;;30.63;47.33;101515.44;1517751;94;21113;-49
2022/06/02 12:57:37;;;;;;;15.00;7.27;;;;;;;30.62;47.47;101516.44;1507586;94;21106;-49
2022/06/02 13:00:33;;;;;;;8.38;6.80;;;;;;;30.61;47.35;101520.10;1500001;95;22192;-51
2022/06/02 13:03:39;;;;;;;7.20;6.42;;;;;;;30.61;47.31;101522.80;1450356;98;21124;-51
2022/06/02 13:06:30;;;;;;;10.03;7.15;;;;;;;30.58;47.36;101519.06;1451785;98;21172;-49
2022/06/02 13:09:35;;;;;;;12.37;7.25;;;;;;;30.54;47.48;101516.66;1443853;99;21159;-51
2022/06/02 13:12:54;;;;;;;9.83;6.75;;;;;;;30.53;47.37;101520.34;1438926;99;21177;-50
2022/06/02 13:16:00;;;;;;;10.72;6.72;;;;;;;30.54;47.62;101518.00;1434409;99;21152;-49
2022/06/02 13:18:42;;;;;;;9.73;6.50;;;;;;;30.53;47.79;101509.60;1446125;95;21092;-49
2022/06/02 13:21:29;;;;;;;9.83;6.53;;;;;;;30.53;46.98;101501.55;1496228;95;21131;-50
2022/06/02 13:24:29;;;;;;;12.63;6.25;;;;;;;30.52;46.33;101503.86;1510975;92;21089;-48
2022/06/02 13:27:55;;;;;;;10.00;6.12;;;;;;;30.51;46.01;101496.81;1559120;90;21110;-50
2022/06/02 13:30:50;;;;;;;10.72;5.78;;;;;;;30.52;45.71;101498.48;1571121;91;21108;-48